sensor_id;sensor_type;location;lat;lon;timestamp;pressure;altitude;pressure_sealevel;temperature;humidity
57250;BME280;43102;52.014;-0.680;2022-07-06T00:00:00;101924;;;15.71;55.74
57250;BME280;43102;52.014;-0.680;2022-07-06T00:01:00;101924;;;15.71;55.74
57250;BME280;43102;52.014;-0.680;2022-07-06T00:02:00;101913;;;15.64;55.97
57250;BME280;43102;52.014;-0.680;2022-07-06T00:03:00;101913;;;15.64;55.97
57250;BME280;43102;52.014;-0.680;2022-07-06T00:04:01;101913;;;15.64;55.97
57250;BME280;43102;52.014;-0.680;2022-07-06T00:05:00;101913;;;15.64;55.97
57250;BME280;43102;52.014;-0.680;2022-07-06T00:06:00;101913;;;15.64;55.97
57250;BME280;43102;52.014;-0.680;2022-07-06T00:07:00;101917;;;15.57;56.42
57250;BME280;43102;52.014;-0.680;2022-07-06T00:08:00;101917;;;15.57;56.42
57250;BME280;43102;52.014;-0.680;2022-07-06T00:09:00;101917;;;15.57;56.42
57250;BME280;43102;52.014;-0.680;2022-07-06T00:10:00;101917;;;15.57;56.42
57250;BME280;43102;52.014;-0.680;2022-07-06T00:11:00;101917;;;15.57;56.42
57250;BME280;43102;52.014;-0.680;2022-07-06T00:12:00;101916;;;15.48;56.45
57250;BME280;43102;52.014;-0.680;2022-07-06T00:13:00;101916;;;15.48;56.45
57250;BME280;43102;52.014;-0.680;2022-07-06T00:14:00;101916;;;15.48;56.45
57250;BME280;43102;52.014;-0.680;2022-07-06T00:15:00;101916;;;15.48;56.45
57250;BME280;43102;52.014;-0.680;2022-07-06T00:16:00;101916;;;15.48;56.45
57250;BME280;43102;52.014;-0.680;2022-07-06T00:17:00;101914;;;15.40;56.57
57250;BME280;43102;52.014;-0.680;2022-07-06T00:18:00;101914;;;15.40;56.57
57250;BME280;43102;52.014;-0.680;2022-07-06T00:19:00;101914;;;15.40;56.57
57250;BME280;43102;52.014;-0.680;2022-07-06T00:20:00;101914;;;15.40;56.57
57250;BME280;43102;52.014;-0.680;2022-07-06T00:21:00;101914;;;15.40;56.57
57250;BME280;43102;52.014;-0.680;2022-07-06T00:22:00;101923;;;15.32;57.29
57250;BME280;43102;52.014;-0.680;2022-07-06T00:23:00;101923;;;15.32;57.29
57250;BME280;43102;52.014;-0.680;2022-07-06T00:24:00;101923;;;15.32;57.29
57250;BME280;43102;52.014;-0.680;2022-07-06T00:25:00;101923;;;15.32;57.29
57250;BME280;43102;52.014;-0.680;2022-07-06T00:26:00;101923;;;15.32;57.29
57250;BME280;43102;52.014;-0.680;2022-07-06T00:27:00;101922;;;15.28;57.42
57250;BME280;43102;52.014;-0.680;2022-07-06T00:28:00;101922;;;15.28;57.42
57250;BME280;43102;52.014;-0.680;2022-07-06T00:29:00;101922;;;15.28;57.42
57250;BME280;43102;52.014;-0.680;2022-07-06T00:30:00;101922;;;15.28;57.42
57250;BME280;43102;52.014;-0.680;2022-07-06T00:31:00;101922;;;15.28;57.42
57250;BME280;43102;52.014;-0.680;2022-07-06T00:32:00;101919;;;15.20;57.61
57250;BME280;43102;52.014;-0.680;2022-07-06T00:33:00;101919;;;15.20;57.61
57250;BME280;43102;52.014;-0.680;2022-07-06T00:34:00;101919;;;15.20;57.61
57250;BME280;43102;52.014;-0.680;2022-07-06T00:35:00;101919;;;15.20;57.61
57250;BME280;43102;52.014;-0.680;2022-07-06T00:36:00;101919;;;15.20;57.61
57250;BME280;43102;52.014;-0.680;2022-07-06T00:37:00;101915;;;15.12;57.60
57250;BME280;43102;52.014;-0.680;2022-07-06T00:38:00;101915;;;15.12;57.60
57250;BME280;43102;52.014;-0.680;2022-07-06T00:39:00;101915;;;15.12;57.60
57250;BME280;43102;52.014;-0.680;2022-07-06T00:40:00;101915;;;15.12;57.60
57250;BME280;43102;52.014;-0.680;2022-07-06T00:41:00;101915;;;15.12;57.60
57250;BME280;43102;52.014;-0.680;2022-07-06T00:42:00;101916;;;15.03;57.96
57250;BME280;43102;52.014;-0.680;2022-07-06T00:43:00;101916;;;15.03;57.96
57250;BME280;43102;52.014;-0.680;2022-07-06T00:44:00;101916;;;15.03;57.96
57250;BME280;43102;52.014;-0.680;2022-07-06T00:45:00;101916;;;15.03;57.96
57250;BME280;43102;52.014;-0.680;2022-07-06T00:46:00;101916;;;15.03;57.96
57250;BME280;43102;52.014;-0.680;2022-07-06T00:47:00;101914;;;14.96;58.28
57250;BME280;43102;52.014;-0.680;2022-07-06T00:48:00;101914;;;14.96;58.28
57250;BME280;43102;52.014;-0.680;2022-07-06T00:49:00;101914;;;14.96;58.28
57250;BME280;43102;52.014;-0.680;2022-07-06T00:50:00;101914;;;14.96;58.28
57250;BME280;43102;52.014;-0.680;2022-07-06T00:51:00;101914;;;14.96;58.28
57250;BME280;43102;52.014;-0.680;2022-07-06T00:52:00;101911;;;14.86;58.89
57250;BME280;43102;52.014;-0.680;2022-07-06T00:53:01;101911;;;14.86;58.89
57250;BME280;43102;52.014;-0.680;2022-07-06T00:54:03;101911;;;14.86;58.89
57250;BME280;43102;52.014;-0.680;2022-07-06T00:55:00;101911;;;14.86;58.89
57250;BME280;43102;52.014;-0.680;2022-07-06T00:56:00;101911;;;14.86;58.89
57250;BME280;43102;52.014;-0.680;2022-07-06T00:57:00;101910;;;14.79;58.83
57250;BME280;43102;52.014;-0.680;2022-07-06T00:58:01;101910;;;14.79;58.83
57250;BME280;43102;52.014;-0.680;2022-07-06T00:59:00;101910;;;14.79;58.83
57250;BME280;43102;52.014;-0.680;2022-07-06T01:00:00;101910;;;14.79;58.83
57250;BME280;43102;52.014;-0.680;2022-07-06T01:01:00;101910;;;14.79;58.83
57250;BME280;43102;52.014;-0.680;2022-07-06T01:02:00;101908;;;14.68;58.89
57250;BME280;43102;52.014;-0.680;2022-07-06T01:03:00;101908;;;14.68;58.89
57250;BME280;43102;52.014;-0.680;2022-07-06T01:04:00;101908;;;14.68;58.89
57250;BME280;43102;52.014;-0.680;2022-07-06T01:05:00;101908;;;14.68;58.89
57250;BME280;43102;52.014;-0.680;2022-07-06T01:06:00;101908;;;14.68;58.89
57250;BME280;43102;52.014;-0.680;2022-07-06T01:07:00;101908;;;14.61;59.28
57250;BME280;43102;52.014;-0.680;2022-07-06T01:08:00;101908;;;14.61;59.28
57250;BME280;43102;52.014;-0.680;2022-07-06T01:09:00;101908;;;14.61;59.28
57250;BME280;43102;52.014;-0.680;2022-07-06T01:10:00;101908;;;14.61;59.28
57250;BME280;43102;52.014;-0.680;2022-07-06T01:11:00;101908;;;14.61;59.28
57250;BME280;43102;52.014;-0.680;2022-07-06T01:12:00;101911;;;14.58;59.63
57250;BME280;43102;52.014;-0.680;2022-07-06T01:13:00;101911;;;14.58;59.63
57250;BME280;43102;52.014;-0.680;2022-07-06T01:14:00;101911;;;14.58;59.63
57250;BME280;43102;52.014;-0.680;2022-07-06T01:15:00;101911;;;14.58;59.63
57250;BME280;43102;52.014;-0.680;2022-07-06T01:16:00;101911;;;14.58;59.63
57250;BME280;43102;52.014;-0.680;2022-07-06T01:17:00;101912;;;14.51;59.70
57250;BME280;43102;52.014;-0.680;2022-07-06T01:18:00;101912;;;14.51;59.70
57250;BME280;43102;52.014;-0.680;2022-07-06T01:19:00;101912;;;14.51;59.70
57250;BME280;43102;52.014;-0.680;2022-07-06T01:20:15;101912;;;14.51;59.70
57250;BME280;43102;52.014;-0.680;2022-07-06T01:21:08;101912;;;14.51;59.70
57250;BME280;43102;52.014;-0.680;2022-07-06T01:22:00;101913;;;14.44;60.11
57250;BME280;43102;52.014;-0.680;2022-07-06T01:23:00;101913;;;14.44;60.11
57250;BME280;43102;52.014;-0.680;2022-07-06T01:24:00;101913;;;14.44;60.11
57250;BME280;43102;52.014;-0.680;2022-07-06T01:25:00;101913;;;14.44;60.11
57250;BME280;43102;52.014;-0.680;2022-07-06T01:26:00;101913;;;14.44;60.11
57250;BME280;43102;52.014;-0.680;2022-07-06T01:27:00;101920;;;14.41;60.39
57250;BME280;43102;52.014;-0.680;2022-07-06T01:28:00;101920;;;14.41;60.39
57250;BME280;43102;52.014;-0.680;2022-07-06T01:29:00;101920;;;14.41;60.39
57250;BME280;43102;52.014;-0.680;2022-07-06T01:30:00;101920;;;14.41;60.39
57250;BME280;43102;52.014;-0.680;2022-07-06T01:31:00;101920;;;14.41;60.39
57250;BME280;43102;52.014;-0.680;2022-07-06T01:32:00;101922;;;14.38;60.55
57250;BME280;43102;52.014;-0.680;2022-07-06T01:33:00;101922;;;14.38;60.55
57250;BME280;43102;52.014;-0.680;2022-07-06T01:34:00;101922;;;14.38;60.55
57250;BME280;43102;52.014;-0.680;2022-07-06T01:35:00;101922;;;14.38;60.55
57250;BME280;43102;52.014;-0.680;2022-07-06T01:36:00;101922;;;14.38;60.55
57250;BME280;43102;52.014;-0.680;2022-07-06T01:37:00;101917;;;14.38;60.72
57250;BME280;43102;52.014;-0.680;2022-07-06T01:38:00;101917;;;14.38;60.72
57250;BME280;43102;52.014;-0.680;2022-07-06T01:39:00;101917;;;14.38;60.72
57250;BME280;43102;52.014;-0.680;2022-07-06T01:40:00;101917;;;14.38;60.72
57250;BME280;43102;52.014;-0.680;2022-07-06T01:41:04;101917;;;14.38;60.72
57250;BME280;43102;52.014;-0.680;2022-07-06T01:42:00;101918;;;14.43;60.68
57250;BME280;43102;52.014;-0.680;2022-07-06T01:43:00;101918;;;14.43;60.68
57250;BME280;43102;52.014;-0.680;2022-07-06T01:44:00;101918;;;14.43;60.68
57250;BME280;43102;52.014;-0.680;2022-07-06T01:45:00;101918;;;14.43;60.68
57250;BME280;43102;52.014;-0.680;2022-07-06T01:46:00;101918;;;14.43;60.68
57250;BME280;43102;52.014;-0.680;2022-07-06T01:47:00;101918;;;14.47;60.90
57250;BME280;43102;52.014;-0.680;2022-07-06T01:48:00;101918;;;14.47;60.90
57250;BME280;43102;52.014;-0.680;2022-07-06T01:49:00;101918;;;14.47;60.90
57250;BME280;43102;52.014;-0.680;2022-07-06T01:50:00;101918;;;14.47;60.90
57250;BME280;43102;52.014;-0.680;2022-07-06T01:51:00;101918;;;14.47;60.90
57250;BME280;43102;52.014;-0.680;2022-07-06T01:52:00;101919;;;14.48;61.21
57250;BME280;43102;52.014;-0.680;2022-07-06T01:53:00;101919;;;14.48;61.21
57250;BME280;43102;52.014;-0.680;2022-07-06T01:54:00;101919;;;14.48;61.21
57250;BME280;43102;52.014;-0.680;2022-07-06T01:55:00;101919;;;14.48;61.21
57250;BME280;43102;52.014;-0.680;2022-07-06T01:56:00;101919;;;14.48;61.21
57250;BME280;43102;52.014;-0.680;2022-07-06T01:57:00;101926;;;14.52;61.04
57250;BME280;43102;52.014;-0.680;2022-07-06T01:58:00;101926;;;14.52;61.04
57250;BME280;43102;52.014;-0.680;2022-07-06T01:59:00;101926;;;14.52;61.04
57250;BME280;43102;52.014;-0.680;2022-07-06T02:00:00;101926;;;14.52;61.04
57250;BME280;43102;52.014;-0.680;2022-07-06T02:01:00;101926;;;14.52;61.04
57250;BME280;43102;52.014;-0.680;2022-07-06T02:02:00;101922;;;14.55;60.87
57250;BME280;43102;52.014;-0.680;2022-07-06T02:03:00;101922;;;14.55;60.87
57250;BME280;43102;52.014;-0.680;2022-07-06T02:04:00;101922;;;14.55;60.87
57250;BME280;43102;52.014;-0.680;2022-07-06T02:05:00;101922;;;14.55;60.87
57250;BME280;43102;52.014;-0.680;2022-07-06T02:06:00;101922;;;14.55;60.87
57250;BME280;43102;52.014;-0.680;2022-07-06T02:07:00;101919;;;14.58;60.76
57250;BME280;43102;52.014;-0.680;2022-07-06T02:08:00;101919;;;14.58;60.76
57250;BME280;43102;52.014;-0.680;2022-07-06T02:09:00;101919;;;14.58;60.76
57250;BME280;43102;52.014;-0.680;2022-07-06T02:10:00;101919;;;14.58;60.76
57250;BME280;43102;52.014;-0.680;2022-07-06T02:11:00;101919;;;14.58;60.76
57250;BME280;43102;52.014;-0.680;2022-07-06T02:12:00;101921;;;14.61;60.61
57250;BME280;43102;52.014;-0.680;2022-07-06T02:13:00;101921;;;14.61;60.61
57250;BME280;43102;52.014;-0.680;2022-07-06T02:14:00;101921;;;14.61;60.61
57250;BME280;43102;52.014;-0.680;2022-07-06T02:15:00;101921;;;14.61;60.61
57250;BME280;43102;52.014;-0.680;2022-07-06T02:16:00;101921;;;14.61;60.61
57250;BME280;43102;52.014;-0.680;2022-07-06T02:17:00;101911;;;14.60;60.28
57250;BME280;43102;52.014;-0.680;2022-07-06T02:18:00;101911;;;14.60;60.28
57250;BME280;43102;52.014;-0.680;2022-07-06T02:19:00;101911;;;14.60;60.28
57250;BME280;43102;52.014;-0.680;2022-07-06T02:20:00;101911;;;14.60;60.28
57250;BME280;43102;52.014;-0.680;2022-07-06T02:21:00;101911;;;14.60;60.28
57250;BME280;43102;52.014;-0.680;2022-07-06T02:22:00;101913;;;14.62;60.94
57250;BME280;43102;52.014;-0.680;2022-07-06T02:23:00;101913;;;14.62;60.94
57250;BME280;43102;52.014;-0.680;2022-07-06T02:24:00;101913;;;14.62;60.94
57250;BME280;43102;52.014;-0.680;2022-07-06T02:25:00;101913;;;14.62;60.94
57250;BME280;43102;52.014;-0.680;2022-07-06T02:26:00;101913;;;14.62;60.94
57250;BME280;43102;52.014;-0.680;2022-07-06T02:27:00;101919;;;14.67;60.99
57250;BME280;43102;52.014;-0.680;2022-07-06T02:28:00;101919;;;14.67;60.99
57250;BME280;43102;52.014;-0.680;2022-07-06T02:29:00;101919;;;14.67;60.99
57250;BME280;43102;52.014;-0.680;2022-07-06T02:30:00;101919;;;14.67;60.99
57250;BME280;43102;52.014;-0.680;2022-07-06T02:31:00;101919;;;14.67;60.99
57250;BME280;43102;52.014;-0.680;2022-07-06T02:32:00;101917;;;14.71;60.81
57250;BME280;43102;52.014;-0.680;2022-07-06T02:33:00;101917;;;14.71;60.81
57250;BME280;43102;52.014;-0.680;2022-07-06T02:34:00;101917;;;14.71;60.81
57250;BME280;43102;52.014;-0.680;2022-07-06T02:35:00;101917;;;14.71;60.81
57250;BME280;43102;52.014;-0.680;2022-07-06T02:36:00;101917;;;14.71;60.81
57250;BME280;43102;52.014;-0.680;2022-07-06T02:37:00;101921;;;14.71;60.75
57250;BME280;43102;52.014;-0.680;2022-07-06T02:38:00;101921;;;14.71;60.75
57250;BME280;43102;52.014;-0.680;2022-07-06T02:39:00;101921;;;14.71;60.75
57250;BME280;43102;52.014;-0.680;2022-07-06T02:40:00;101921;;;14.71;60.75
57250;BME280;43102;52.014;-0.680;2022-07-06T02:41:00;101921;;;14.71;60.75
57250;BME280;43102;52.014;-0.680;2022-07-06T02:42:00;101910;;;14.72;60.80
57250;BME280;43102;52.014;-0.680;2022-07-06T02:43:00;101910;;;14.72;60.80
57250;BME280;43102;52.014;-0.680;2022-07-06T02:44:00;101910;;;14.72;60.80
57250;BME280;43102;52.014;-0.680;2022-07-06T02:45:00;101910;;;14.72;60.80
57250;BME280;43102;52.014;-0.680;2022-07-06T02:46:00;101910;;;14.72;60.80
57250;BME280;43102;52.014;-0.680;2022-07-06T02:47:00;101903;;;14.76;60.94
57250;BME280;43102;52.014;-0.680;2022-07-06T02:48:00;101903;;;14.76;60.94
57250;BME280;43102;52.014;-0.680;2022-07-06T02:49:00;101903;;;14.76;60.94
57250;BME280;43102;52.014;-0.680;2022-07-06T02:50:00;101903;;;14.76;60.94
57250;BME280;43102;52.014;-0.680;2022-07-06T02:51:00;101903;;;14.76;60.94
57250;BME280;43102;52.014;-0.680;2022-07-06T02:52:00;101899;;;14.79;61.59
57250;BME280;43102;52.014;-0.680;2022-07-06T02:53:00;101899;;;14.79;61.59
57250;BME280;43102;52.014;-0.680;2022-07-06T02:54:00;101899;;;14.79;61.59
57250;BME280;43102;52.014;-0.680;2022-07-06T02:55:00;101899;;;14.79;61.59
57250;BME280;43102;52.014;-0.680;2022-07-06T02:56:00;101899;;;14.79;61.59
57250;BME280;43102;52.014;-0.680;2022-07-06T02:57:00;101887;;;14.83;61.27
57250;BME280;43102;52.014;-0.680;2022-07-06T02:58:00;101887;;;14.83;61.27
57250;BME280;43102;52.014;-0.680;2022-07-06T02:59:00;101887;;;14.83;61.27
57250;BME280;43102;52.014;-0.680;2022-07-06T03:00:00;101887;;;14.83;61.27
57250;BME280;43102;52.014;-0.680;2022-07-06T03:01:00;101887;;;14.83;61.27
57250;BME280;43102;52.014;-0.680;2022-07-06T03:02:00;101893;;;14.86;61.19
57250;BME280;43102;52.014;-0.680;2022-07-06T03:03:00;101893;;;14.86;61.19
57250;BME280;43102;52.014;-0.680;2022-07-06T03:04:00;101893;;;14.86;61.19
57250;BME280;43102;52.014;-0.680;2022-07-06T03:05:00;101893;;;14.86;61.19
57250;BME280;43102;52.014;-0.680;2022-07-06T03:06:00;101893;;;14.86;61.19
57250;BME280;43102;52.014;-0.680;2022-07-06T03:07:00;101882;;;14.88;60.72
57250;BME280;43102;52.014;-0.680;2022-07-06T03:08:00;101882;;;14.88;60.72
57250;BME280;43102;52.014;-0.680;2022-07-06T03:09:00;101882;;;14.88;60.72
57250;BME280;43102;52.014;-0.680;2022-07-06T03:10:00;101882;;;14.88;60.72
57250;BME280;43102;52.014;-0.680;2022-07-06T03:11:00;101882;;;14.88;60.72
57250;BME280;43102;52.014;-0.680;2022-07-06T03:12:00;101881;;;14.92;61.07
57250;BME280;43102;52.014;-0.680;2022-07-06T03:13:00;101881;;;14.92;61.07
57250;BME280;43102;52.014;-0.680;2022-07-06T03:14:00;101881;;;14.92;61.07
57250;BME280;43102;52.014;-0.680;2022-07-06T03:15:00;101881;;;14.92;61.07
57250;BME280;43102;52.014;-0.680;2022-07-06T03:16:00;101881;;;14.92;61.07
57250;BME280;43102;52.014;-0.680;2022-07-06T03:17:00;101895;;;14.97;61.40
57250;BME280;43102;52.014;-0.680;2022-07-06T03:18:00;101895;;;14.97;61.40
57250;BME280;43102;52.014;-0.680;2022-07-06T03:19:00;101895;;;14.97;61.40
57250;BME280;43102;52.014;-0.680;2022-07-06T03:20:00;101895;;;14.97;61.40
57250;BME280;43102;52.014;-0.680;2022-07-06T03:21:00;101895;;;14.97;61.40
57250;BME280;43102;52.014;-0.680;2022-07-06T03:22:00;101896;;;14.99;61.88
57250;BME280;43102;52.014;-0.680;2022-07-06T03:23:00;101896;;;14.99;61.88
57250;BME280;43102;52.014;-0.680;2022-07-06T03:24:00;101896;;;14.99;61.88
57250;BME280;43102;52.014;-0.680;2022-07-06T03:25:00;101896;;;14.99;61.88
57250;BME280;43102;52.014;-0.680;2022-07-06T03:26:00;101896;;;14.99;61.88
57250;BME280;43102;52.014;-0.680;2022-07-06T03:27:00;101881;;;14.99;61.31
57250;BME280;43102;52.014;-0.680;2022-07-06T03:28:00;101881;;;14.99;61.31
57250;BME280;43102;52.014;-0.680;2022-07-06T03:29:00;101881;;;14.99;61.31
57250;BME280;43102;52.014;-0.680;2022-07-06T03:30:00;101881;;;14.99;61.31
57250;BME280;43102;52.014;-0.680;2022-07-06T03:31:00;101881;;;14.99;61.31
57250;BME280;43102;52.014;-0.680;2022-07-06T03:32:00;101880;;;15.00;60.90
57250;BME280;43102;52.014;-0.680;2022-07-06T03:33:00;101880;;;15.00;60.90
57250;BME280;43102;52.014;-0.680;2022-07-06T03:34:00;101880;;;15.00;60.90
57250;BME280;43102;52.014;-0.680;2022-07-06T03:35:00;101880;;;15.00;60.90
57250;BME280;43102;52.014;-0.680;2022-07-06T03:36:00;101880;;;15.00;60.90
57250;BME280;43102;52.014;-0.680;2022-07-06T03:37:00;101868;;;14.96;60.64
57250;BME280;43102;52.014;-0.680;2022-07-06T03:38:00;101868;;;14.96;60.64
57250;BME280;43102;52.014;-0.680;2022-07-06T03:39:00;101868;;;14.96;60.64
57250;BME280;43102;52.014;-0.680;2022-07-06T03:40:00;101868;;;14.96;60.64
57250;BME280;43102;52.014;-0.680;2022-07-06T03:41:00;101868;;;14.96;60.64
57250;BME280;43102;52.014;-0.680;2022-07-06T03:42:00;101861;;;14.91;60.40
57250;BME280;43102;52.014;-0.680;2022-07-06T03:43:00;101861;;;14.91;60.40
57250;BME280;43102;52.014;-0.680;2022-07-06T03:44:00;101861;;;14.91;60.40
57250;BME280;43102;52.014;-0.680;2022-07-06T03:45:00;101861;;;14.91;60.40
57250;BME280;43102;52.014;-0.680;2022-07-06T03:46:00;101861;;;14.91;60.40
57250;BME280;43102;52.014;-0.680;2022-07-06T03:47:00;101864;;;14.85;60.93
57250;BME280;43102;52.014;-0.680;2022-07-06T03:48:00;101864;;;14.85;60.93
57250;BME280;43102;52.014;-0.680;2022-07-06T03:49:00;101864;;;14.85;60.93
57250;BME280;43102;52.014;-0.680;2022-07-06T03:50:00;101864;;;14.85;60.93
57250;BME280;43102;52.014;-0.680;2022-07-06T03:51:00;101864;;;14.85;60.93
57250;BME280;43102;52.014;-0.680;2022-07-06T03:52:00;101867;;;14.79;61.79
57250;BME280;43102;52.014;-0.680;2022-07-06T03:53:00;101867;;;14.79;61.79
57250;BME280;43102;52.014;-0.680;2022-07-06T03:54:00;101867;;;14.79;61.79
57250;BME280;43102;52.014;-0.680;2022-07-06T03:55:00;101867;;;14.79;61.79
57250;BME280;43102;52.014;-0.680;2022-07-06T03:56:00;101867;;;14.79;61.79
57250;BME280;43102;52.014;-0.680;2022-07-06T03:57:00;101877;;;14.73;61.41
57250;BME280;43102;52.014;-0.680;2022-07-06T03:58:00;101877;;;14.73;61.41
57250;BME280;43102;52.014;-0.680;2022-07-06T03:59:00;101877;;;14.73;61.41
57250;BME280;43102;52.014;-0.680;2022-07-06T04:00:00;101877;;;14.73;61.41
57250;BME280;43102;52.014;-0.680;2022-07-06T04:01:00;101877;;;14.73;61.41
57250;BME280;43102;52.014;-0.680;2022-07-06T04:02:00;101872;;;14.69;61.54
57250;BME280;43102;52.014;-0.680;2022-07-06T04:03:00;101872;;;14.69;61.54
57250;BME280;43102;52.014;-0.680;2022-07-06T04:04:00;101872;;;14.69;61.54
57250;BME280;43102;52.014;-0.680;2022-07-06T04:05:00;101872;;;14.69;61.54
57250;BME280;43102;52.014;-0.680;2022-07-06T04:06:00;101872;;;14.69;61.54
57250;BME280;43102;52.014;-0.680;2022-07-06T04:07:00;101874;;;14.64;61.71
57250;BME280;43102;52.014;-0.680;2022-07-06T04:08:00;101874;;;14.64;61.71
57250;BME280;43102;52.014;-0.680;2022-07-06T04:09:00;101874;;;14.64;61.71
57250;BME280;43102;52.014;-0.680;2022-07-06T04:10:00;101874;;;14.64;61.71
57250;BME280;43102;52.014;-0.680;2022-07-06T04:11:00;101874;;;14.64;61.71
57250;BME280;43102;52.014;-0.680;2022-07-06T04:12:00;101879;;;14.59;62.26
57250;BME280;43102;52.014;-0.680;2022-07-06T04:13:00;101879;;;14.59;62.26
57250;BME280;43102;52.014;-0.680;2022-07-06T04:14:00;101879;;;14.59;62.26
57250;BME280;43102;52.014;-0.680;2022-07-06T04:15:00;101879;;;14.59;62.26
57250;BME280;43102;52.014;-0.680;2022-07-06T04:16:00;101879;;;14.59;62.26
57250;BME280;43102;52.014;-0.680;2022-07-06T04:17:00;101876;;;14.56;62.27
57250;BME280;43102;52.014;-0.680;2022-07-06T04:18:00;101876;;;14.56;62.27
57250;BME280;43102;52.014;-0.680;2022-07-06T04:19:00;101876;;;14.56;62.27
57250;BME280;43102;52.014;-0.680;2022-07-06T04:20:00;101876;;;14.56;62.27
57250;BME280;43102;52.014;-0.680;2022-07-06T04:21:00;101876;;;14.56;62.27
57250;BME280;43102;52.014;-0.680;2022-07-06T04:22:00;101871;;;14.49;62.95
57250;BME280;43102;52.014;-0.680;2022-07-06T04:23:00;101871;;;14.49;62.95
57250;BME280;43102;52.014;-0.680;2022-07-06T04:24:00;101871;;;14.49;62.95
57250;BME280;43102;52.014;-0.680;2022-07-06T04:25:00;101871;;;14.49;62.95
57250;BME280;43102;52.014;-0.680;2022-07-06T04:26:00;101871;;;14.49;62.95
57250;BME280;43102;52.014;-0.680;2022-07-06T04:27:00;101882;;;14.48;63.14
57250;BME280;43102;52.014;-0.680;2022-07-06T04:28:00;101882;;;14.48;63.14
57250;BME280;43102;52.014;-0.680;2022-07-06T04:29:00;101882;;;14.48;63.14
57250;BME280;43102;52.014;-0.680;2022-07-06T04:30:00;101882;;;14.48;63.14
57250;BME280;43102;52.014;-0.680;2022-07-06T04:31:00;101882;;;14.48;63.14
57250;BME280;43102;52.014;-0.680;2022-07-06T04:32:00;101883;;;14.49;63.19
57250;BME280;43102;52.014;-0.680;2022-07-06T04:33:00;101883;;;14.49;63.19
57250;BME280;43102;52.014;-0.680;2022-07-06T04:34:00;101883;;;14.49;63.19
57250;BME280;43102;52.014;-0.680;2022-07-06T04:35:00;101883;;;14.49;63.19
57250;BME280;43102;52.014;-0.680;2022-07-06T04:36:00;101883;;;14.49;63.19
57250;BME280;43102;52.014;-0.680;2022-07-06T04:37:00;101886;;;14.52;62.94
57250;BME280;43102;52.014;-0.680;2022-07-06T04:38:00;101886;;;14.52;62.94
57250;BME280;43102;52.014;-0.680;2022-07-06T04:39:00;101886;;;14.52;62.94
57250;BME280;43102;52.014;-0.680;2022-07-06T04:40:00;101886;;;14.52;62.94
57250;BME280;43102;52.014;-0.680;2022-07-06T04:41:00;101886;;;14.52;62.94
57250;BME280;43102;52.014;-0.680;2022-07-06T04:42:00;101887;;;14.56;62.81
57250;BME280;43102;52.014;-0.680;2022-07-06T04:43:00;101887;;;14.56;62.81
57250;BME280;43102;52.014;-0.680;2022-07-06T04:44:00;101887;;;14.56;62.81
57250;BME280;43102;52.014;-0.680;2022-07-06T04:45:00;101887;;;14.56;62.81
57250;BME280;43102;52.014;-0.680;2022-07-06T04:46:00;101887;;;14.56;62.81
57250;BME280;43102;52.014;-0.680;2022-07-06T04:47:00;101882;;;14.55;62.74
57250;BME280;43102;52.014;-0.680;2022-07-06T04:48:00;101882;;;14.55;62.74
57250;BME280;43102;52.014;-0.680;2022-07-06T04:49:00;101882;;;14.55;62.74
57250;BME280;43102;52.014;-0.680;2022-07-06T04:50:00;101882;;;14.55;62.74
57250;BME280;43102;52.014;-0.680;2022-07-06T04:51:00;101882;;;14.55;62.74
57250;BME280;43102;52.014;-0.680;2022-07-06T04:52:00;101881;;;14.57;63.93
57250;BME280;43102;52.014;-0.680;2022-07-06T04:53:00;101881;;;14.57;63.93
57250;BME280;43102;52.014;-0.680;2022-07-06T04:54:00;101881;;;14.57;63.93
57250;BME280;43102;52.014;-0.680;2022-07-06T04:55:00;101881;;;14.57;63.93
57250;BME280;43102;52.014;-0.680;2022-07-06T04:56:00;101881;;;14.57;63.93
57250;BME280;43102;52.014;-0.680;2022-07-06T04:57:00;101879;;;14.63;63.17
57250;BME280;43102;52.014;-0.680;2022-07-06T04:58:00;101879;;;14.63;63.17
57250;BME280;43102;52.014;-0.680;2022-07-06T04:59:00;101879;;;14.63;63.17
57250;BME280;43102;52.014;-0.680;2022-07-06T05:00:00;101879;;;14.63;63.17
57250;BME280;43102;52.014;-0.680;2022-07-06T05:01:00;101879;;;14.63;63.17
57250;BME280;43102;52.014;-0.680;2022-07-06T05:02:00;101878;;;14.67;63.48
57250;BME280;43102;52.014;-0.680;2022-07-06T05:03:00;101878;;;14.67;63.48
57250;BME280;43102;52.014;-0.680;2022-07-06T05:04:00;101878;;;14.67;63.48
57250;BME280;43102;52.014;-0.680;2022-07-06T05:05:00;101878;;;14.67;63.48
57250;BME280;43102;52.014;-0.680;2022-07-06T05:06:00;101878;;;14.67;63.48
57250;BME280;43102;52.014;-0.680;2022-07-06T05:07:00;101887;;;14.69;63.59
57250;BME280;43102;52.014;-0.680;2022-07-06T05:08:00;101887;;;14.69;63.59
57250;BME280;43102;52.014;-0.680;2022-07-06T05:09:00;101887;;;14.69;63.59
57250;BME280;43102;52.014;-0.680;2022-07-06T05:10:00;101887;;;14.69;63.59
57250;BME280;43102;52.014;-0.680;2022-07-06T05:11:00;101887;;;14.69;63.59
57250;BME280;43102;52.014;-0.680;2022-07-06T05:12:00;101883;;;14.70;63.67
57250;BME280;43102;52.014;-0.680;2022-07-06T05:13:00;101883;;;14.70;63.67
57250;BME280;43102;52.014;-0.680;2022-07-06T05:14:00;101883;;;14.70;63.67
57250;BME280;43102;52.014;-0.680;2022-07-06T05:15:00;101883;;;14.70;63.67
57250;BME280;43102;52.014;-0.680;2022-07-06T05:16:00;101883;;;14.70;63.67
57250;BME280;43102;52.014;-0.680;2022-07-06T05:17:00;101874;;;14.76;63.66
57250;BME280;43102;52.014;-0.680;2022-07-06T05:18:00;101874;;;14.76;63.66
57250;BME280;43102;52.014;-0.680;2022-07-06T05:19:00;101874;;;14.76;63.66
57250;BME280;43102;52.014;-0.680;2022-07-06T05:20:00;101874;;;14.76;63.66
57250;BME280;43102;52.014;-0.680;2022-07-06T05:21:00;101874;;;14.76;63.66